createdAt,value
2022-11-16T00:01:34.065Z,9.20
2022-11-16T00:04:02.594Z,9.06
2022-11-16T00:06:30.153Z,9.32
2022-11-16T00:09:20.034Z,9.31
2022-11-16T00:11:49.958Z,9.49
2022-11-16T00:14:17.863Z,9.16
2022-11-16T00:16:44.927Z,9.22
2022-11-16T00:19:12.823Z,9.31
2022-11-16T00:21:39.951Z,9.47
2022-11-16T00:24:07.970Z,9.32
2022-11-16T00:26:35.296Z,9.33
2022-11-16T00:29:02.352Z,9.08
2022-11-16T00:31:29.348Z,9.46
2022-11-16T00:33:56.403Z,9.38
2022-11-16T00:36:23.443Z,9.38
2022-11-16T00:38:54.070Z,9.29
2022-11-16T00:41:21.286Z,9.35
2022-11-16T00:43:48.281Z,9.26
2022-11-16T00:46:15.472Z,9.16
2022-11-16T00:48:42.762Z,9.29
2022-11-16T00:51:09.812Z,9.00
2022-11-16T00:53:36.995Z,9.25
2022-11-16T00:56:05.029Z,9.39
2022-11-16T00:58:32.534Z,8.96
2022-11-16T01:01:08.616Z,8.95
2022-11-16T01:03:36.636Z,9.15
2022-11-16T01:06:14.758Z,9.64
2022-11-16T01:08:43.167Z,9.50
2022-11-16T01:11:31.517Z,9.50
2022-11-16T01:13:58.594Z,9.13
2022-11-16T01:16:25.479Z,9.35
2022-11-16T01:18:54.070Z,9.64
2022-11-16T01:21:22.402Z,9.46
2022-11-16T01:23:49.734Z,9.35
2022-11-16T01:26:16.837Z,9.32
2022-11-16T01:28:43.958Z,9.18
2022-11-16T01:31:11.803Z,9.19
2022-11-16T01:33:39.208Z,9.41
2022-11-16T01:36:15.005Z,8.83
2022-11-16T01:38:43.809Z,9.21
2022-11-16T01:41:15.692Z,9.33
2022-11-16T01:43:53.911Z,9.68
2022-11-16T01:46:21.398Z,9.43
2022-11-16T01:48:50.966Z,9.52
2022-11-16T01:51:18.140Z,9.40
2022-11-16T01:53:45.388Z,9.59
2022-11-16T01:56:12.473Z,9.59
2022-11-16T01:58:39.715Z,9.49
2022-11-16T02:01:06.753Z,9.57
2022-11-16T02:03:36.865Z,9.35
2022-11-16T02:06:27.659Z,9.70
2022-11-16T02:09:43.517Z,9.40
2022-11-16T02:12:28.443Z,9.68
2022-11-16T02:15:04.804Z,9.72
2022-11-16T02:17:31.615Z,9.60
2022-11-16T02:20:35.990Z,9.65
2022-11-16T02:23:44.143Z,9.64
2022-11-16T02:26:45.381Z,9.77
2022-11-16T02:29:15.228Z,9.66
2022-11-16T02:31:50.872Z,9.26
2022-11-16T02:34:21.555Z,9.34
2022-11-16T02:36:52.890Z,9.51
2022-11-16T02:39:24.954Z,9.24
2022-11-16T02:41:54.750Z,9.61
2022-11-16T02:44:33.279Z,9.23
2022-11-16T02:47:05.437Z,9.61
2022-11-16T02:49:36.823Z,9.57
2022-11-16T02:52:05.137Z,9.39
2022-11-16T02:54:32.077Z,9.39
2022-11-16T02:57:05.043Z,9.66
2022-11-16T02:59:38.684Z,9.53
2022-11-16T03:02:34.024Z,9.36
2022-11-16T03:05:15.747Z,9.49
2022-11-16T03:07:48.771Z,9.36
2022-11-16T03:10:39.039Z,9.34
2022-11-16T03:13:08.704Z,9.64
2022-11-16T03:15:39.710Z,9.33
2022-11-16T03:18:08.872Z,9.44
2022-11-16T03:20:38.468Z,9.25
2022-11-16T03:23:09.918Z,9.56
2022-11-16T03:25:51.465Z,9.54
2022-11-16T03:29:03.266Z,9.54
2022-11-16T03:31:37.940Z,9.21
2022-11-16T03:34:12.704Z,9.29
2022-11-16T03:36:42.836Z,9.48
2022-11-16T03:39:16.068Z,9.25
2022-11-16T03:41:45.999Z,9.45
2022-11-16T03:44:14.758Z,9.36
2022-11-16T03:46:46.937Z,9.12
2022-11-16T03:49:13.995Z,9.36
2022-11-16T03:51:41.336Z,9.48
2022-11-16T03:54:08.234Z,8.96
2022-11-16T03:56:35.197Z,9.37
2022-11-16T03:59:02.073Z,9.24
2022-11-16T04:01:29.189Z,9.34
2022-11-16T04:03:56.193Z,9.23
2022-11-16T04:06:42.209Z,9.49
2022-11-16T04:09:29.270Z,9.46
2022-11-16T04:12:15.086Z,9.09
2022-11-16T04:15:01.540Z,9.29
2022-11-16T04:17:47.010Z,9.32
2022-11-16T04:20:33.943Z,9.31
2022-11-16T04:23:25.056Z,9.46
2022-11-16T04:25:52.927Z,9.49
2022-11-16T04:28:24.318Z,9.19
2022-11-16T04:31:12.766Z,9.38
2022-11-16T04:33:58.549Z,9.34
2022-11-16T04:36:43.762Z,9.12
2022-11-16T04:39:10.751Z,9.33
2022-11-16T04:41:56.569Z,9.42
2022-11-16T04:44:28.833Z,9.16
2022-11-16T04:47:09.156Z,9.36
2022-11-16T04:49:36.146Z,9.39
2022-11-16T04:52:03.282Z,9.37
2022-11-16T04:54:30.369Z,9.44
2022-11-16T04:56:57.313Z,9.30
2022-11-16T04:59:24.396Z,9.36
2022-11-16T05:02:09.308Z,9.29
2022-11-16T05:04:37.743Z,9.44
2022-11-16T05:07:11.558Z,9.48
2022-11-16T06:18:57.057Z,9.47
2022-11-16T06:21:27.507Z,8.49
2022-11-16T06:24:16.204Z,9.31
2022-11-16T06:27:50.735Z,9.32
2022-11-16T06:49:48.354Z,8.82
2022-11-16T06:52:17.388Z,8.65
2022-11-16T06:54:44.433Z,8.66
2022-11-16T06:57:11.414Z,8.21
2022-11-16T06:59:38.535Z,8.43
2022-11-16T07:02:05.853Z,8.83
2022-11-16T07:04:35.743Z,8.17
2022-11-16T07:07:06.836Z,8.56
2022-11-16T07:09:44.817Z,8.27
2022-11-16T07:54:27.733Z,9.45
2022-11-16T07:57:38.366Z,9.41
2022-11-16T08:00:26.890Z,9.39
2022-11-16T08:02:57.482Z,9.20
2022-11-16T08:14:05.620Z,8.59
2022-11-16T08:16:44.895Z,9.26
2022-11-16T08:22:52.763Z,9.61
2022-11-16T12:06:49.307Z,13.26
2022-11-16T12:44:59.062Z,14.08
2022-11-16T12:59:09.745Z,14.31
2022-11-16T13:02:42.307Z,14.03
2022-11-16T14:38:56.999Z,12.51
2022-11-16T14:41:25.793Z,12.26
2022-11-16T14:43:56.889Z,12.09
2022-11-16T14:46:28.400Z,12.07
2022-11-16T14:49:08.031Z,11.93
2022-11-16T14:51:51.093Z,12.04
2022-11-16T14:54:35.590Z,12.41
2022-11-16T14:57:12.218Z,11.91
2022-11-16T14:59:42.725Z,12.01
2022-11-16T15:02:28.158Z,12.14
2022-11-16T15:04:55.290Z,12.01
2022-11-16T15:07:29.043Z,11.51
2022-11-16T15:09:59.556Z,11.70
2022-11-16T15:12:51.651Z,11.83
2022-11-16T15:15:28.469Z,11.88
2022-11-16T15:18:04.350Z,12.30
2022-11-16T15:20:34.240Z,11.42
2022-11-16T15:23:02.819Z,11.99
2022-11-16T15:26:06.494Z,11.97
2022-11-16T15:28:34.256Z,11.53
2022-11-16T15:31:04.713Z,11.12
2022-11-16T15:33:42.738Z,11.11
2022-11-16T15:36:33.729Z,11.67
2022-11-16T15:39:03.656Z,11.36
2022-11-16T15:41:30.581Z,11.38
2022-11-16T15:44:16.832Z,11.17
2022-11-16T15:46:54.659Z,11.38
2022-11-16T15:49:42.294Z,10.87
2022-11-16T15:52:09.184Z,11.19
2022-11-16T15:54:57.063Z,11.46
2022-11-16T15:57:24.931Z,11.09
2022-11-16T15:59:57.360Z,11.21
2022-11-16T16:02:27.756Z,11.07
2022-11-16T16:04:55.042Z,11.35
2022-11-16T16:07:42.500Z,11.26
2022-11-16T16:10:18.706Z,11.26
2022-11-16T16:12:57.866Z,11.19
2022-11-16T16:15:36.900Z,11.03
2022-11-16T16:18:13.372Z,10.99
2022-11-16T16:20:49.058Z,10.99
2022-11-16T16:23:16.940Z,10.57
2022-11-16T16:25:50.123Z,11.01
2022-11-16T16:28:35.216Z,10.68
2022-11-16T16:31:02.367Z,10.79
2022-11-16T16:33:30.457Z,10.80
2022-11-16T16:35:57.414Z,10.73
2022-11-16T16:38:24.300Z,10.56
2022-11-16T16:40:51.142Z,10.38
2022-11-16T16:43:17.946Z,10.49
2022-11-16T16:45:45.714Z,10.83
2022-11-16T16:48:13.059Z,10.47
2022-11-16T16:50:40.453Z,10.77
2022-11-16T16:53:07.660Z,10.43
2022-11-16T16:55:37.439Z,10.60
2022-11-16T16:58:05.422Z,10.83
2022-11-16T17:00:32.332Z,10.57
2022-11-16T17:02:59.060Z,10.67
2022-11-16T17:05:29.139Z,10.60
2022-11-16T17:07:56.465Z,10.66
2022-11-16T17:10:24.070Z,10.69
2022-11-16T17:12:54.354Z,10.77
2022-11-16T17:15:21.381Z,10.69
2022-11-16T17:17:48.332Z,10.33
2022-11-16T17:20:16.659Z,10.26
2022-11-16T17:22:43.839Z,10.35
2022-11-16T17:25:11.112Z,10.49
2022-11-16T17:27:38.023Z,10.26
2022-11-16T17:30:05.185Z,10.18
2022-11-16T17:32:32.035Z,10.37
2022-11-16T17:34:58.954Z,10.31
2022-11-16T17:37:25.773Z,10.06
2022-11-16T17:39:52.612Z,10.16
2022-11-16T17:42:19.459Z,10.20
2022-11-16T17:44:46.347Z,9.85
2022-11-16T17:47:13.221Z,10.12
2022-11-16T17:49:39.946Z,10.07
2022-11-16T17:52:07.580Z,10.12
2022-11-16T17:54:34.425Z,10.14
2022-11-16T17:57:01.339Z,10.36
2022-11-16T17:59:29.810Z,10.22
2022-11-16T18:01:58.287Z,10.45
2022-11-16T18:04:25.580Z,10.24
2022-11-16T18:07:11.028Z,9.99
2022-11-16T18:17:07.584Z,9.84
2022-11-16T18:36:57.590Z,9.07
2022-11-16T18:39:52.120Z,9.16
2022-11-16T18:45:35.735Z,9.82
2022-11-16T18:48:29.513Z,9.45
2022-11-16T18:52:25.786Z,9.59
2022-11-16T18:55:04.851Z,10.04
2022-11-16T19:04:10.755Z,8.98
2022-11-16T19:10:06.975Z,9.20
2022-11-16T19:13:06.177Z,9.56
2022-11-16T19:16:07.460Z,10.07
2022-11-16T19:18:42.433Z,9.30
2022-11-16T19:21:58.661Z,9.84
2022-11-16T19:27:49.431Z,9.89
2022-11-16T19:37:10.211Z,9.71
2022-11-16T19:43:25.737Z,9.29
2022-11-16T19:47:02.064Z,9.63
2022-11-16T19:57:09.171Z,8.52
2022-11-16T20:00:36.348Z,9.07
2022-11-16T20:03:42.793Z,8.47
2022-11-16T20:18:56.112Z,8.92
2022-11-16T20:22:19.751Z,9.08
2022-11-16T20:25:10.141Z,8.77
2022-11-16T20:28:16.491Z,9.50
2022-11-16T20:31:22.317Z,8.90
2022-11-16T20:34:12.074Z,9.42
2022-11-16T20:43:49.584Z,8.76
2022-11-16T20:46:51.584Z,8.61
2022-11-16T20:49:35.663Z,8.57
2022-11-16T20:56:09.153Z,8.67
2022-11-16T21:01:53.961Z,9.42
2022-11-16T21:18:39.698Z,8.92
2022-11-16T21:24:53.112Z,9.27
2022-11-16T21:27:55.455Z,8.45
2022-11-16T21:31:25.061Z,8.45
2022-11-16T21:34:47.943Z,8.23
2022-11-16T21:37:40.852Z,8.34
2022-11-16T21:57:13.378Z,8.58
2022-11-16T22:31:50.954Z,8.54
2022-11-16T22:44:20.103Z,8.91
2022-11-16T22:47:38.463Z,8.33
2022-11-16T22:50:41.418Z,8.35
2022-11-16T22:56:29.689Z,8.00
2022-11-16T22:59:28.387Z,7.91
2022-11-16T23:08:48.487Z,7.98
2022-11-16T23:12:06.651Z,8.98
2022-11-16T23:15:10.290Z,8.32
2022-11-16T23:17:45.027Z,8.55
2022-11-16T23:20:37.115Z,8.45
2022-11-16T23:23:39.665Z,8.34
2022-11-16T23:26:51.667Z,8.50
2022-11-16T23:29:33.743Z,7.93
2022-11-16T23:32:11.772Z,8.33
2022-11-16T23:34:51.023Z,8.03
2022-11-16T23:37:56.154Z,8.91
2022-11-16T23:41:04.594Z,7.98
2022-11-16T23:47:03.515Z,8.33
2022-11-16T23:53:02.676Z,8.20
2022-11-16T23:59:34.784Z,8.98
